Time;durP1;ratioP1;P1;durP2;ratioP2;P2;SDS_P1;SDS_P2;PMS_P1;PMS_P2;Temp;Humidity;BMP_temperature;BMP_pressure;BME280_temperature;BME280_humidity;BME280_pressure;Samples;Min_cycle;Max_cycle;Signal;HPM_P1;HPM_P2
2022/07/09 00:01:58;;;;;;;8.57;4.65;;;12.30;99.90;;;;;;5014925;28;20050;-59
2022/07/09 00:04:24;;;;;;;8.93;4.55;;;12.30;99.90;;;;;;5010188;28;20026;-60
2022/07/09 00:06:49;;;;;;;8.30;4.63;;;12.30;99.90;;;;;;5014074;28;20022;-59
2022/07/09 00:09:15;;;;;;;7.32;4.35;;;12.30;99.90;;;;;;5013257;28;20033;-59
2022/07/09 00:11:41;;;;;;;8.20;4.68;;;12.20;99.90;;;;;;5010165;28;20038;-59
2022/07/09 00:14:06;;;;;;;9.10;4.75;;;12.20;99.90;;;;;;5011928;28;20034;-59
2022/07/09 00:16:32;;;;;;;8.38;4.57;;;12.00;99.90;;;;;;5017090;28;20026;-59
2022/07/09 00:18:58;;;;;;;8.02;4.57;;;12.00;99.90;;;;;;5012765;28;20045;-59
2022/07/09 00:21:23;;;;;;;9.07;4.35;;;12.00;99.90;;;;;;5011618;28;20038;-61
2022/07/09 00:23:49;;;;;;;10.50;5.30;;;12.00;99.90;;;;;;5028554;28;20035;-59
2022/07/09 00:26:15;;;;;;;7.03;4.20;;;12.00;99.90;;;;;;5010456;28;20168;-59
2022/07/09 00:28:41;;;;;;;8.07;4.38;;;12.20;99.90;;;;;;5010455;28;20158;-59
2022/07/09 00:31:07;;;;;;;12.50;5.00;;;12.10;99.90;;;;;;5010033;28;20045;-60
2022/07/09 00:33:33;;;;;;;9.70;4.72;;;12.00;99.90;;;;;;5016494;28;20038;-59
2022/07/09 00:35:59;;;;;;;11.23;5.13;;;11.90;99.90;;;;;;5020746;28;20034;-60
2022/07/09 00:38:24;;;;;;;9.95;5.05;;;11.70;99.90;;;;;;5019489;28;20030;-60
2022/07/09 00:40:50;;;;;;;11.93;5.22;;;11.70;99.90;;;;;;5008306;28;20045;-59
2022/07/09 00:43:21;;;;;;;8.70;5.15;;;11.70;99.90;;;;;;5029566;28;20041;-59
2022/07/09 00:45:48;;;;;;;8.25;5.05;;;11.70;99.90;;;;;;5013762;28;20026;-59
2022/07/09 00:48:14;;;;;;;10.48;5.35;;;11.70;99.90;;;;;;5020293;28;20061;-59
2022/07/09 00:50:41;;;;;;;11.95;5.43;;;11.70;99.90;;;;;;5014729;28;20034;-59
2022/07/09 00:53:13;;;;;;;10.32;4.90;;;11.70;99.90;;;;;;5026066;28;20032;-59
2022/07/09 00:55:40;;;;;;;9.57;5.00;;;11.60;99.90;;;;;;5014741;28;20058;-59
2022/07/09 00:58:07;;;;;;;7.30;4.80;;;11.50;99.90;;;;;;5012287;28;20359;-59
2022/07/09 01:00:34;;;;;;;8.70;4.78;;;11.70;99.90;;;;;;5011019;28;20045;-59
2022/07/09 01:03:00;;;;;;;9.45;4.93;;;11.70;99.90;;;;;;5010501;28;20033;-59
2022/07/09 01:05:25;;;;;;;8.05;5.05;;;11.60;99.90;;;;;;5013919;28;20370;-60
2022/07/09 01:07:52;;;;;;;10.65;4.70;;;11.60;99.90;;;;;;5010806;28;20034;-59
2022/07/09 01:10:17;;;;;;;9.15;5.18;;;11.70;99.90;;;;;;5011006;28;20429;-60
2022/07/09 01:12:45;;;;;;;8.30;5.05;;;11.80;99.90;;;;;;5019243;28;20042;-60
2022/07/09 01:15:10;;;;;;;11.70;5.95;;;11.80;99.90;;;;;;5017552;28;20081;-59
2022/07/09 01:17:40;;;;;;;8.25;4.82;;;11.70;99.90;;;;;;5010398;28;20045;-59
2022/07/09 01:20:07;;;;;;;8.68;5.18;;;11.60;99.90;;;;;;5009043;28;20769;-59
2022/07/09 01:22:34;;;;;;;9.45;4.85;;;11.70;99.90;;;;;;5015315;28;20030;-59
2022/07/09 01:25:01;;;;;;;7.75;4.70;;;11.60;99.90;;;;;;5011119;28;20034;-58
2022/07/09 01:27:26;;;;;;;8.10;4.97;;;11.70;99.90;;;;;;5019798;28;20080;-60
2022/07/09 01:29:52;;;;;;;11.10;5.68;;;11.70;99.90;;;;;;5009191;28;20037;-59
2022/07/09 01:32:18;;;;;;;7.65;4.70;;;11.60;99.90;;;;;;5008408;28;20053;-59
2022/07/09 01:34:43;;;;;;;8.70;4.78;;;11.60;99.90;;;;;;5010917;28;20022;-59
2022/07/09 01:37:09;;;;;;;9.52;5.65;;;11.60;99.90;;;;;;5018807;28;20030;-59
2022/07/09 01:39:49;;;;;;;8.57;4.63;;;11.60;99.90;;;;;;5030604;28;20124;-59
2022/07/09 01:42:21;;;;;;;9.30;5.30;;;11.50;99.90;;;;;;5016524;28;20049;-59
2022/07/09 01:44:50;;;;;;;10.48;5.07;;;11.40;99.90;;;;;;5008937;28;20611;-59
2022/07/09 01:47:16;;;;;;;10.65;5.30;;;11.40;99.90;;;;;;5013252;28;20034;-59
2022/07/09 01:49:42;;;;;;;8.70;4.97;;;11.40;99.90;;;;;;5007317;28;20084;-59
2022/07/09 01:52:08;;;;;;;9.07;4.90;;;11.40;99.90;;;;;;5018530;28;20187;-59
2022/07/09 01:54:34;;;;;;;9.02;4.93;;;11.40;99.90;;;;;;5003865;28;20052;-60
2022/07/09 01:57:00;;;;;;;11.70;4.63;;;11.50;99.90;;;;;;5010163;28;20042;-59
2022/07/09 01:59:25;;;;;;;10.27;4.90;;;11.50;99.90;;;;;;5012409;28;20056;-59
2022/07/09 02:01:51;;;;;;;9.95;5.57;;;11.50;99.90;;;;;;5022803;28;20072;-59
2022/07/09 02:04:16;;;;;;;9.27;5.30;;;11.50;99.90;;;;;;5017195;28;20482;-59
2022/07/09 02:06:42;;;;;;;8.60;4.95;;;11.40;99.90;;;;;;5007461;28;20045;-59
2022/07/09 02:09:08;;;;;;;10.73;5.65;;;11.30;99.90;;;;;;5008731;28;20117;-59
2022/07/09 02:11:33;;;;;;;10.45;4.82;;;11.20;99.90;;;;;;5007099;28;20068;-60
2022/07/09 02:13:59;;;;;;;8.73;4.93;;;11.20;99.90;;;;;;5009921;28;20030;-59
2022/07/09 02:16:24;;;;;;;7.88;5.32;;;11.20;99.90;;;;;;5009754;28;20034;-59
2022/07/09 02:18:50;;;;;;;11.65;5.20;;;11.10;99.90;;;;;;5009469;28;20022;-59
2022/07/09 02:21:17;;;;;;;11.32;5.13;;;11.20;99.90;;;;;;5009186;28;20042;-58
2022/07/09 02:23:42;;;;;;;9.43;5.38;;;11.20;99.90;;;;;;5008892;28;20493;-59
2022/07/09 02:26:08;;;;;;;8.98;5.20;;;11.10;99.90;;;;;;5021593;28;20033;-59
2022/07/09 02:28:34;;;;;;;10.68;5.05;;;11.10;99.90;;;;;;5010162;28;20053;-60
2022/07/09 02:30:59;;;;;;;10.95;5.13;;;11.10;99.90;;;;;;5010413;28;20452;-59
2022/07/09 02:33:25;;;;;;;8.73;5.15;;;11.10;99.90;;;;;;5010613;28;20022;-59
2022/07/09 02:35:51;;;;;;;12.32;5.00;;;11.10;99.90;;;;;;5008690;28;20033;-59
2022/07/09 02:38:17;;;;;;;7.82;4.93;;;11.10;99.90;;;;;;5008362;28;20061;-59
2022/07/09 02:40:42;;;;;;;7.25;4.65;;;11.10;99.90;;;;;;5023271;28;20118;-59
2022/07/09 02:43:08;;;;;;;9.30;5.15;;;11.10;99.90;;;;;;5030094;28;20025;-59
2022/07/09 02:45:34;;;;;;;18.80;5.18;;;11.10;99.90;;;;;;5012105;28;20123;-60
2022/07/09 02:47:59;;;;;;;9.63;5.68;;;11.10;99.90;;;;;;5009327;28;20382;-59
2022/07/09 02:50:25;;;;;;;9.82;5.28;;;11.00;99.90;;;;;;5022012;28;20393;-59
2022/07/09 02:52:51;;;;;;;10.13;5.38;;;10.90;99.90;;;;;;5028711;28;20751;-60
2022/07/09 02:55:17;;;;;;;8.13;5.18;;;10.90;99.90;;;;;;5016366;28;20053;-59
2022/07/09 02:57:42;;;;;;;10.55;5.22;;;10.90;99.90;;;;;;5029369;28;20025;-59
2022/07/09 03:00:08;;;;;;;9.45;5.57;;;10.90;99.90;;;;;;5018085;28;20116;-59
2022/07/09 03:02:34;;;;;;;10.63;5.10;;;11.00;99.90;;;;;;5006405;28;20045;-61
2022/07/09 03:05:00;;;;;;;12.43;5.25;;;10.80;99.90;;;;;;5019656;28;20108;-59
2022/07/09 03:07:26;;;;;;;9.02;4.80;;;10.80;99.90;;;;;;5012009;28;20038;-59
2022/07/09 03:09:52;;;;;;;9.18;4.95;;;10.70;99.90;;;;;;5008340;28;20060;-59
2022/07/09 03:12:18;;;;;;;8.18;5.10;;;10.70;99.90;;;;;;5006798;28;20565;-58
2022/07/09 03:14:44;;;;;;;9.45;4.78;;;10.80;99.90;;;;;;5014691;28;20026;-59
2022/07/09 03:17:09;;;;;;;11.32;5.30;;;10.90;99.90;;;;;;5006374;28;20161;-59
2022/07/09 03:19:35;;;;;;;7.70;4.85;;;10.90;99.90;;;;;;5009459;28;20029;-60
2022/07/09 03:22:00;;;;;;;12.63;5.53;;;10.80;99.90;;;;;;5007198;28;20048;-59
2022/07/09 03:24:26;;;;;;;7.43;4.85;;;10.60;99.90;;;;;;5010827;28;20025;-59
2022/07/09 03:26:52;;;;;;;8.50;4.88;;;10.60;99.90;;;;;;5017728;28;20048;-58
2022/07/09 03:29:17;;;;;;;8.38;4.95;;;10.50;99.90;;;;;;5010664;28;20451;-59
2022/07/09 03:31:43;;;;;;;12.38;5.35;;;10.50;99.90;;;;;;5009315;28;20393;-59
2022/07/09 03:34:09;;;;;;;9.13;5.15;;;10.60;99.90;;;;;;5020424;28;20084;-59
2022/07/09 03:36:34;;;;;;;11.82;5.50;;;10.60;99.90;;;;;;5007749;28;20056;-60
2022/07/09 03:39:00;;;;;;;12.57;5.70;;;10.70;99.90;;;;;;5008967;28;20542;-59
2022/07/09 03:41:26;;;;;;;12.00;6.00;;;10.70;99.90;;;;;;5022864;28;20042;-59
2022/07/09 03:43:51;;;;;;;10.25;4.97;;;10.80;99.90;;;;;;5005991;28;20061;-59
2022/07/09 03:46:17;;;;;;;11.10;5.45;;;10.80;99.90;;;;;;5008972;28;20021;-59
2022/07/09 03:48:43;;;;;;;10.32;5.40;;;10.80;99.90;;;;;;5008767;28;20439;-59
2022/07/09 03:51:08;;;;;;;11.02;5.63;;;10.80;99.90;;;;;;5007732;28;20364;-59
2022/07/09 03:53:35;;;;;;;11.25;5.43;;;10.70;99.90;;;;;;5009638;28;20455;-59
2022/07/09 03:56:01;;;;;;;10.65;5.10;;;10.70;99.90;;;;;;5007095;28;20525;-59
2022/07/09 03:58:27;;;;;;;10.75;4.90;;;10.70;99.90;;;;;;5007829;28;20077;-59
2022/07/09 04:00:54;;;;;;;10.35;5.03;;;10.80;99.90;;;;;;5015842;28;20045;-59
2022/07/09 04:03:20;;;;;;;9.43;5.32;;;10.80;99.90;;;;;;5024179;28;20030;-59
2022/07/09 04:05:45;;;;;;;8.40;5.07;;;10.80;99.90;;;;;;5015793;28;20541;-59
2022/07/09 04:08:11;;;;;;;10.38;5.13;;;10.90;99.90;;;;;;5025239;28;20447;-59
2022/07/09 04:10:37;;;;;;;8.82;5.50;;;11.00;99.90;;;;;;5006959;28;20105;-60
2022/07/09 04:13:02;;;;;;;9.88;5.07;;;11.10;99.90;;;;;;5010078;28;20036;-59
2022/07/09 04:15:28;;;;;;;10.48;5.47;;;11.10;99.90;;;;;;5006699;28;20034;-59
2022/07/09 04:17:54;;;;;;;9.88;5.28;;;11.10;99.90;;;;;;5007040;28;20034;-60
2022/07/09 04:20:21;;;;;;;10.20;5.05;;;11.00;99.90;;;;;;5013619;28;20389;-59
2022/07/09 04:22:46;;;;;;;10.68;5.50;;;11.10;99.90;;;;;;5012249;28;20113;-59
2022/07/09 04:25:12;;;;;;;10.88;5.35;;;11.10;99.90;;;;;;5008356;28;20105;-59
2022/07/09 04:27:38;;;;;;;9.90;5.05;;;11.00;99.90;;;;;;5013920;28;20042;-60
2022/07/09 04:30:10;;;;;;;9.85;5.20;;;11.00;99.90;;;;;;5009081;28;20461;-60
2022/07/09 04:32:36;;;;;;;8.43;5.53;;;11.20;99.90;;;;;;5006224;28;20092;-59
2022/07/09 04:35:01;;;;;;;10.35;5.05;;;11.30;99.90;;;;;;5010024;28;20076;-60
2022/07/09 04:37:27;;;;;;;10.40;5.38;;;11.40;99.90;;;;;;5007473;28;20057;-59
2022/07/09 04:39:53;;;;;;;9.35;4.93;;;11.40;99.90;;;;;;5008181;28;20080;-59
2022/07/09 04:42:20;;;;;;;9.13;4.85;;;11.50;99.90;;;;;;5006655;28;20514;-60
2022/07/09 04:44:46;;;;;;;8.65;5.07;;;11.60;99.90;;;;;;5006516;28;20058;-59
2022/07/09 04:47:12;;;;;;;10.07;5.03;;;11.60;99.90;;;;;;5009013;28;20034;-59
2022/07/09 04:49:37;;;;;;;10.50;5.32;;;11.60;99.90;;;;;;5008626;28;20038;-59
2022/07/09 04:52:04;;;;;;;9.70;5.18;;;11.60;99.90;;;;;;5026418;28;20072;-59
2022/07/09 04:54:30;;;;;;;9.00;5.20;;;11.50;99.90;;;;;;5020866;28;20053;-60
2022/07/09 04:56:56;;;;;;;8.13;5.18;;;11.40;99.90;;;;;;5009290;28;20451;-60
2022/07/09 04:59:21;;;;;;;9.65;5.35;;;11.50;99.90;;;;;;5010905;28;20057;-58
2022/07/09 05:01:48;;;;;;;9.63;5.43;;;11.40;99.90;;;;;;5010478;28;20029;-59
2022/07/09 05:04:13;;;;;;;10.40;5.90;;;11.50;99.90;;;;;;5017036;28;20034;-59
2022/07/09 05:06:40;;;;;;;10.52;5.03;;;11.40;99.90;;;;;;5011738;28;20026;-59
2022/07/09 05:09:05;;;;;;;11.13;5.68;;;11.50;99.90;;;;;;5009306;28;20073;-59
2022/07/09 05:11:32;;;;;;;8.30;5.63;;;11.70;99.90;;;;;;5017472;28;20482;-59
2022/07/09 05:13:58;;;;;;;8.15;5.50;;;11.70;99.90;;;;;;5007685;28;20030;-59
2022/07/09 05:16:23;;;;;;;8.00;5.00;;;11.80;99.90;;;;;;5025405;28;20021;-59
2022/07/09 05:18:49;;;;;;;8.43;5.03;;;12.00;99.90;;;;;;5008748;28;20057;-60
2022/07/09 05:21:15;;;;;;;8.88;5.60;;;12.10;99.90;;;;;;5012898;28;20088;-59
2022/07/09 05:23:40;;;;;;;13.25;5.25;;;12.30;99.90;;;;;;5008846;28;20044;-60
2022/07/09 05:26:06;;;;;;;11.02;5.35;;;12.40;99.90;;;;;;5007459;28;20033;-59
2022/07/09 05:28:32;;;;;;;9.63;4.72;;;12.50;99.90;;;;;;5010694;28;20493;-59
2022/07/09 05:30:58;;;;;;;8.82;5.53;;;12.70;99.90;;;;;;5009956;28;20030;-60
2022/07/09 05:33:23;;;;;;;11.13;5.32;;;12.90;99.90;;;;;;5011256;28;20033;-59
2022/07/09 05:35:49;;;;;;;13.48;5.95;;;13.10;99.90;;;;;;5007784;28;20032;-60
2022/07/09 05:38:15;;;;;;;9.82;5.18;;;13.40;99.90;;;;;;5009795;28;20030;-59
2022/07/09 05:40:40;;;;;;;10.15;5.38;;;13.70;99.90;;;;;;5009975;28;20034;-60
2022/07/09 05:43:06;;;;;;;11.55;5.30;;;13.90;99.90;;;;;;5010299;28;20033;-59
2022/07/09 05:45:32;;;;;;;7.95;5.45;;;14.10;99.90;;;;;;5010750;28;20038;-60
2022/07/09 05:47:57;;;;;;;8.07;5.40;;;14.30;99.90;;;;;;5015544;28;20470;-59
2022/07/09 05:50:23;;;;;;;8.65;5.60;;;14.50;99.90;;;;;;5012290;28;20029;-59
2022/07/09 05:52:49;;;;;;;7.55;5.20;;;14.60;99.90;;;;;;5009626;28;20030;-60
2022/07/09 05:55:15;;;;;;;12.25;5.15;;;14.70;99.90;;;;;;5009493;28;20513;-60
2022/07/09 05:57:40;;;;;;;15.85;5.60;;;14.80;99.90;;;;;;4992148;28;20030;-59
2022/07/09 06:00:07;;;;;;;10.00;5.63;;;15.00;99.90;;;;;;5018629;28;20963;-60
2022/07/09 06:02:33;;;;;;;9.43;5.32;;;15.20;99.90;;;;;;5015893;28;20033;-60
2022/07/09 06:04:58;;;;;;;9.77;5.75;;;15.40;99.90;;;;;;5015362;28;20087;-60
2022/07/09 06:07:24;;;;;;;9.05;5.38;;;15.50;99.90;;;;;;5011784;28;20033;-59
2022/07/09 06:09:50;;;;;;;9.10;5.30;;;15.70;99.90;;;;;;5017123;28;20036;-59
2022/07/09 06:12:16;;;;;;;11.82;5.70;;;15.60;99.90;;;;;;5008904;28;20041;-60
2022/07/09 06:14:41;;;;;;;12.73;5.55;;;15.60;99.90;;;;;;5011077;28;20529;-60
2022/07/09 06:17:07;;;;;;;11.32;5.10;;;15.60;99.90;;;;;;5008139;28;20034;-59
2022/07/09 06:19:36;;;;;;;16.25;5.90;;;15.70;99.90;;;;;;5010761;28;20049;-59
2022/07/09 06:22:03;;;;;;;7.20;4.82;;;15.80;99.90;;;;;;5007657;28;20137;-59
2022/07/09 06:24:32;;;;;;;13.30;5.20;;;15.90;99.90;;;;;;5010244;28;20034;-59
2022/07/09 06:26:57;;;;;;;12.68;5.47;;;16.10;99.90;;;;;;5008221;28;20033;-59
2022/07/09 06:29:23;;;;;;;16.45;5.72;;;16.20;99.90;;;;;;5010746;28;20026;-59
2022/07/09 06:31:49;;;;;;;11.57;5.15;;;16.40;99.90;;;;;;5008198;28;20120;-60
2022/07/09 06:34:14;;;;;;;14.07;4.75;;;16.40;99.90;;;;;;5010641;28;20030;-59
2022/07/09 06:36:44;;;;;;;11.15;4.55;;;16.60;99.90;;;;;;5009507;28;20034;-59
2022/07/09 06:41:54;;;;;;;9.40;4.28;;;16.70;99.90;;;;;;5006822;28;20088;-59
2022/07/09 06:44:20;;;;;;;12.40;4.18;;;16.90;99.90;;;;;;5010458;28;20421;-60
2022/07/09 06:46:45;;;;;;;10.05;4.20;;;16.90;99.90;;;;;;5008229;28;20065;-61
2022/07/09 06:49:11;;;;;;;9.80;4.20;;;17.10;99.90;;;;;;5009703;28;20481;-59
2022/07/09 06:51:37;;;;;;;14.45;4.50;;;17.10;99.90;;;;;;5008607;28;20053;-60
2022/07/09 06:54:02;;;;;;;9.60;4.60;;;17.20;99.90;;;;;;5006087;28;20046;-59
2022/07/09 06:56:28;;;;;;;9.35;3.75;;;17.40;99.90;;;;;;5010249;28;20088;-59
2022/07/09 06:58:54;;;;;;;11.02;4.32;;;17.40;99.90;;;;;;5006925;28;20430;-61
2022/07/09 07:01:19;;;;;;;6.60;3.63;;;17.50;99.90;;;;;;5007402;28;20046;-61
2022/07/09 07:03:45;;;;;;;11.77;3.88;;;17.60;99.90;;;;;;5007022;28;20120;-60
2022/07/09 07:06:11;;;;;;;7.47;3.75;;;17.50;99.90;;;;;;5009312;28;20030;-60
2022/07/09 07:08:36;;;;;;;12.65;4.25;;;17.50;99.90;;;;;;5009427;28;20080;-60
2022/07/09 07:11:02;;;;;;;10.95;4.10;;;17.30;99.90;;;;;;5008458;28;20037;-60
2022/07/09 07:13:28;;;;;;;10.45;4.40;;;17.40;99.90;;;;;;5008591;28;20038;-60
2022/07/09 07:15:53;;;;;;;10.38;3.90;;;17.60;99.90;;;;;;5009217;28;20026;-61
2022/07/09 07:18:19;;;;;;;11.05;4.63;;;17.80;99.90;;;;;;5007324;28;20033;-60
2022/07/09 07:20:45;;;;;;;10.50;4.32;;;18.00;99.90;;;;;;5005004;28;20482;-59
2022/07/09 07:23:11;;;;;;;10.32;3.92;;;18.20;99.90;;;;;;5004286;28;20053;-59
2022/07/09 07:25:36;;;;;;;7.05;3.80;;;18.30;99.90;;;;;;5010384;28;20033;-59
2022/07/09 07:28:03;;;;;;;10.98;3.90;;;18.40;99.90;;;;;;5003150;28;20088;-60
2022/07/09 07:30:32;;;;;;;8.30;3.85;;;18.50;99.90;;;;;;5008007;28;20562;-60
2022/07/09 07:32:58;;;;;;;8.77;3.20;;;18.60;99.90;;;;;;5008534;28;20034;-60
2022/07/09 07:35:24;;;;;;;9.43;3.70;;;18.80;99.90;;;;;;5008263;28;20025;-60
2022/07/09 07:37:50;;;;;;;6.90;3.35;;;19.00;99.90;;;;;;5009229;28;20099;-60
2022/07/09 07:40:15;;;;;;;17.42;3.50;;;19.10;99.90;;;;;;5008973;28;20034;-60
2022/07/09 07:42:41;;;;;;;9.38;2.28;;;19.20;99.90;;;;;;5009528;28;20065;-60
2022/07/09 07:45:07;;;;;;;7.85;2.90;;;19.30;99.90;;;;;;5008469;28;20040;-61
2022/07/09 07:47:33;;;;;;;11.63;3.10;;;19.40;99.90;;;;;;5009641;28;20133;-60
2022/07/09 07:49:59;;;;;;;10.02;3.00;;;19.70;99.90;;;;;;5007555;28;20101;-61
2022/07/09 07:52:25;;;;;;;9.70;2.55;;;19.90;99.90;;;;;;5009349;28;20167;-60
2022/07/09 07:54:51;;;;;;;7.55;2.60;;;20.10;99.90;;;;;;5008764;28;20182;-60
2022/07/09 07:57:16;;;;;;;5.90;2.28;;;19.90;99.90;;;;;;5009149;28;20026;-60
2022/07/09 07:59:42;;;;;;;9.50;2.47;;;19.90;99.90;;;;;;5009522;28;20026;-60
2022/07/09 08:02:08;;;;;;;8.18;2.72;;;19.70;99.90;;;;;;5008643;28;20030;-60
2022/07/09 08:04:33;;;;;;;7.15;2.38;;;19.50;99.90;;;;;;5008358;28;20042;-60
2022/07/09 08:06:59;;;;;;;6.00;2.70;;;19.40;99.90;;;;;;5008655;28;20029;-60
2022/07/09 08:09:24;;;;;;;6.30;2.63;;;19.30;99.90;;;;;;5009317;28;20143;-60
2022/07/09 08:11:50;;;;;;;8.98;2.80;;;19.20;99.90;;;;;;5009146;28;20030;-60
2022/07/09 08:14:16;;;;;;;6.38;2.50;;;19.30;99.90;;;;;;5008606;28;20733;-60
2022/07/09 08:16:41;;;;;;;6.88;2.63;;;19.50;99.90;;;;;;5009380;28;20030;-60
2022/07/09 08:19:07;;;;;;;13.20;3.05;;;19.70;99.90;;;;;;5007504;28;20048;-60
2022/07/09 08:21:32;;;;;;;8.80;2.97;;;19.70;99.90;;;;;;5009461;28;20038;-60
2022/07/09 08:24:02;;;;;;;4.05;1.88;;;19.90;99.90;;;;;;5012321;28;20066;-61
2022/07/09 08:26:28;;;;;;;6.55;2.10;;;20.20;99.90;;;;;;5012844;28;20034;-60
2022/07/09 08:28:54;;;;;;;9.55;2.38;;;20.40;99.90;;;;;;5012528;28;20433;-61
2022/07/09 08:31:21;;;;;;;5.88;2.10;;;20.50;99.90;;;;;;5012700;28;20029;-60
2022/07/09 08:33:47;;;;;;;3.42;1.70;;;20.40;99.90;;;;;;5011944;28;20500;-60
2022/07/09 08:36:13;;;;;;;7.43;1.92;;;20.40;99.90;;;;;;5011996;28;20045;-60
2022/07/09 08:38:39;;;;;;;5.78;2.08;;;20.50;99.90;;;;;;5012770;28;20056;-60
2022/07/09 08:41:05;;;;;;;4.47;2.60;;;20.60;99.90;;;;;;5011855;28;20096;-60
2022/07/09 08:43:38;;;;;;;12.38;2.83;;;20.90;99.90;;;;;;5012621;28;20044;-60
2022/07/09 08:46:05;;;;;;;8.73;2.22;;;20.90;99.90;;;;;;5011945;28;20112;-60
2022/07/09 08:48:36;;;;;;;7.00;2.42;;;21.00;99.90;;;;;;5011590;28;20030;-60
2022/07/09 08:51:02;;;;;;;5.43;2.20;;;21.10;99.90;;;;;;5011794;28;20081;-61
2022/07/09 08:53:29;;;;;;;5.75;1.90;;;21.20;99.90;;;;;;5011270;28;20097;-60
2022/07/09 08:55:55;;;;;;;8.77;2.42;;;21.20;99.90;;;;;;5012131;28;20100;-60
2022/07/09 08:58:21;;;;;;;4.97;2.13;;;21.40;99.90;;;;;;5011837;28;20528;-60
2022/07/09 09:00:48;;;;;;;4.70;1.95;;;21.50;99.90;;;;;;5012356;28;20045;-59
2022/07/09 09:03:14;;;;;;;5.65;2.28;;;21.50;99.90;;;;;;5011621;28;20037;-60
2022/07/09 09:05:40;;;;;;;4.78;1.85;;;21.30;99.90;;;;;;5012247;28;20033;-60
2022/07/09 09:08:24;;;;;;;4.75;1.98;;;21.30;99.90;;;;;;5011726;28;20466;-60
2022/07/09 09:10:50;;;;;;;3.63;2.00;;;21.40;99.90;;;;;;5008633;28;20367;-60
2022/07/09 09:13:17;;;;;;;4.78;2.25;;;21.50;99.90;;;;;;5011393;28;20029;-60
2022/07/09 09:15:43;;;;;;;4.22;1.83;;;21.50;99.90;;;;;;5012209;28;20459;-60
2022/07/09 09:18:09;;;;;;;4.07;1.90;;;21.70;99.90;;;;;;5011214;28;20041;-60
2022/07/09 09:20:36;;;;;;;4.45;2.10;;;21.90;99.90;;;;;;5011900;28;20116;-60
2022/07/09 09:23:04;;;;;;;9.73;1.75;;;22.20;99.90;;;;;;5011092;28;20462;-60
2022/07/09 09:25:30;;;;;;;5.18;2.08;;;22.40;99.90;;;;;;5011325;28;20039;-59
2022/07/09 09:27:58;;;;;;;4.70;1.80;;;22.50;99.90;;;;;;5011368;28;20038;-60
2022/07/09 09:30:25;;;;;;;7.75;1.90;;;22.30;99.90;;;;;;5011573;28;20075;-61
2022/07/09 09:33:03;;;;;;;9.48;2.00;;;22.40;99.90;;;;;;5011658;28;20026;-60
2022/07/09 09:35:41;;;;;;;8.75;2.13;;;22.50;99.90;;;;;;5011332;28;20348;-61
2022/07/09 09:38:07;;;;;;;4.40;1.80;;;22.90;99.90;;;;;;5009600;28;20105;-61
2022/07/09 09:40:35;;;;;;;4.88;1.88;;;23.10;99.90;;;;;;5011553;28;20117;-60
2022/07/09 09:43:02;;;;;;;4.03;1.92;;;23.20;99.90;;;;;;5010739;28;20026;-60
2022/07/09 09:45:29;;;;;;;3.72;1.90;;;23.10;98.60;;;;;;5011626;28;20033;-60
2022/07/09 09:47:55;;;;;;;2.58;1.55;;;23.20;99.90;;;;;;5011209;28;20084;-60
2022/07/09 09:50:25;;;;;;;4.15;1.75;;;23.40;97.60;;;;;;5006016;28;20050;-60
2022/07/09 09:52:53;;;;;;;4.55;1.70;;;23.40;98.70;;;;;;5008034;28;20774;-60
2022/07/09 09:55:19;;;;;;;5.15;1.90;;;23.40;98.60;;;;;;5006512;28;20112;-60
2022/07/09 09:57:46;;;;;;;8.98;1.98;;;23.50;98.80;;;;;;5012453;28;20505;-60
2022/07/09 10:00:13;;;;;;;3.88;1.75;;;23.70;96.90;;;;;;5012899;28;20029;-60
2022/07/09 10:02:43;;;;;;;4.40;1.70;;;23.80;98.40;;;;;;5007673;28;20046;-61
2022/07/09 10:05:09;;;;;;;4.13;1.80;;;23.70;96.20;;;;;;5003219;28;20081;-61
2022/07/09 10:07:35;;;;;;;4.82;1.83;;;23.10;96.60;;;;;;5008692;28;20074;-61
2022/07/09 10:10:01;;;;;;;4.10;1.80;;;22.70;96.80;;;;;;5007346;28;20471;-61
2022/07/09 10:12:28;;;;;;;4.70;2.00;;;22.30;97.00;;;;;;4994411;28;20038;-60
2022/07/09 10:14:54;;;;;;;3.88;1.60;;;22.30;98.60;;;;;;5006767;28;20103;-60
2022/07/09 10:17:20;;;;;;;7.70;1.80;;;22.30;98.00;;;;;;5009834;28;20600;-61
2022/07/09 10:19:57;;;;;;;6.15;1.80;;;22.30;98.60;;;;;;5010821;28;20040;-60
2022/07/09 10:22:39;;;;;;;3.13;1.90;;;22.30;98.40;;;;;;5009947;28;20046;-60
2022/07/09 10:25:06;;;;;;;2.53;1.90;;;22.20;98.90;;;;;;5003717;28;20104;-60
2022/07/09 10:27:46;;;;;;;4.40;1.70;;;22.00;98.80;;;;;;5008439;28;21264;-61
2022/07/09 10:30:22;;;;;;;4.43;2.20;;;21.70;98.80;;;;;;4990321;28;20034;-61
2022/07/09 10:33:07;;;;;;;4.57;2.20;;;21.50;99.00;;;;;;5003379;28;20030;-60
2022/07/09 10:35:43;;;;;;;7.20;2.28;;;21.40;99.80;;;;;;5010370;28;20125;-60
2022/07/09 10:38:09;;;;;;;6.53;1.95;;;21.40;99.90;;;;;;5008982;28;20426;-61
2022/07/09 10:40:39;;;;;;;4.25;2.15;;;21.40;99.50;;;;;;5010224;28;20120;-60
2022/07/09 10:43:05;;;;;;;3.28;1.80;;;21.60;99.90;;;;;;5007331;28;20060;-61
2022/07/09 10:45:38;;;;;;;3.55;1.70;;;21.70;99.50;;;;;;5021175;28;20045;-60
2022/07/09 10:48:06;;;;;;;4.03;1.63;;;21.80;98.60;;;;;;5007435;28;20033;-61
2022/07/09 10:50:35;;;;;;;3.10;1.50;;;21.80;98.10;;;;;;5005910;28;20116;-60
2022/07/09 10:53:02;;;;;;;3.97;1.60;;;21.90;99.30;;;;;;5007932;28;20375;-61
2022/07/09 10:55:29;;;;;;;5.40;2.10;;;21.90;99.40;;;;;;5008601;28;20054;-61
2022/07/09 10:57:55;;;;;;;6.00;2.30;;;21.90;99.80;;;;;;5006048;28;20441;-60
2022/07/09 11:00:25;;;;;;;3.45;1.80;;;22.10;99.90;;;;;;5008056;28;20076;-60
2022/07/09 11:03:09;;;;;;;4.05;2.00;;;22.10;99.90;;;;;;5010383;28;20026;-60
2022/07/09 11:05:45;;;;;;;5.63;1.80;;;22.20;99.90;;;;;;5009111;28;20041;-60
2022/07/09 11:08:11;;;;;;;4.05;1.77;;;22.30;99.50;;;;;;5007679;28;20029;-61
2022/07/09 11:10:38;;;;;;;7.45;1.73;;;22.40;97.80;;;;;;5008773;28;20072;-60
2022/07/09 11:13:06;;;;;;;4.63;1.90;;;22.50;98.30;;;;;;5008064;28;20033;-60
2022/07/09 11:15:36;;;;;;;5.10;2.65;;;22.40;98.50;;;;;;5008720;28;20065;-61
2022/07/09 11:18:09;;;;;;;3.57;1.93;;;22.40;99.30;;;;;;5009279;28;20048;-60
2022/07/09 11:20:44;;;;;;;7.80;1.80;;;22.20;98.30;;;;;;5013964;28;20026;-60
2022/07/09 11:23:10;;;;;;;2.85;1.80;;;22.00;97.70;;;;;;5000979;28;20026;-61
2022/07/09 11:25:36;;;;;;;8.77;1.83;;;21.90;98.70;;;;;;5009742;28;20805;-60
2022/07/09 11:28:03;;;;;;;3.10;1.80;;;22.00;98.10;;;;;;5007987;28;20034;-61
2022/07/09 11:30:30;;;;;;;2.92;1.88;;;22.00;99.00;;;;;;5008719;28;20422;-61
2022/07/09 11:32:56;;;;;;;4.22;1.58;;;22.10;98.00;;;;;;5009009;28;20038;-61
2022/07/09 11:35:28;;;;;;;2.70;1.60;;;22.20;99.60;;;;;;5007660;28;20440;-60
2022/07/09 11:37:55;;;;;;;2.42;1.40;;;22.20;97.50;;;;;;5008779;28;20030;-60
2022/07/09 11:40:21;;;;;;;3.67;1.83;;;22.10;96.80;;;;;;5008051;28;20053;-61
2022/07/09 11:42:49;;;;;;;2.63;1.85;;;22.10;97.80;;;;;;5008458;28;20060;-61
2022/07/09 11:45:14;;;;;;;4.35;1.52;;;22.20;98.50;;;;;;5006328;28;20064;-61
2022/07/09 11:47:40;;;;;;;5.13;1.73;;;22.70;96.00;;;;;;5008325;28;20038;-60
2022/07/09 11:50:12;;;;;;;2.92;1.35;;;23.20;97.70;;;;;;5008612;28;20084;-60
2022/07/09 11:52:46;;;;;;;2.55;1.42;;;23.60;97.40;;;;;;5008959;28;20072;-60
2022/07/09 11:55:14;;;;;;;3.70;1.80;;;23.50;96.80;;;;;;5010841;28;20053;-61
2022/07/09 11:57:52;;;;;;;3.72;1.40;;;23.50;96.90;;;;;;5026678;28;20026;-60
2022/07/09 12:00:27;;;;;;;2.65;1.38;;;23.60;94.00;;;;;;5009173;28;20088;-61
2022/07/09 12:02:53;;;;;;;3.97;1.63;;;23.50;94.70;;;;;;5012521;28;20053;-61
2022/07/09 12:05:36;;;;;;;6.38;1.50;;;23.40;96.40;;;;;;5011494;28;20029;-61
2022/07/09 12:08:07;;;;;;;4.43;1.70;;;23.10;94.30;;;;;;5012060;28;20044;-61
2022/07/09 12:10:35;;;;;;;3.05;1.45;;;22.90;95.00;;;;;;5020520;28;20117;-60
2022/07/09 12:13:01;;;;;;;3.38;1.60;;;22.80;95.50;;;;;;5021224;28;20088;-61
2022/07/09 12:15:28;;;;;;;2.08;1.40;;;22.90;97.50;;;;;;5017216;28;20025;-61
2022/07/09 12:17:58;;;;;;;6.57;1.60;;;23.10;94.70;;;;;;5017841;28;20065;-61
2022/07/09 12:20:26;;;;;;;3.47;1.60;;;23.00;94.70;;;;;;5009000;28;20324;-61
2022/07/09 12:22:52;;;;;;;5.95;1.67;;;23.00;95.50;;;;;;5007746;28;20049;-61
2022/07/09 12:25:19;;;;;;;3.65;1.75;;;22.80;95.90;;;;;;5016184;28;20057;-60
2022/07/09 12:27:46;;;;;;;2.53;1.40;;;22.90;97.20;;;;;;5014617;28;20029;-61
2022/07/09 12:30:12;;;;;;;7.57;1.75;;;23.10;95.00;;;;;;5018298;28;20026;-61
2022/07/09 12:32:39;;;;;;;4.93;1.55;;;23.30;96.20;;;;;;5011769;28;20057;-61
2022/07/09 12:35:05;;;;;;;4.85;1.70;;;23.70;95.40;;;;;;5019109;28;20108;-60
2022/07/09 12:37:31;;;;;;;1.98;1.25;;;23.80;94.60;;;;;;5020348;28;20045;-60
2022/07/09 12:39:57;;;;;;;6.68;1.67;;;24.30;95.20;;;;;;5018279;28;20033;-61
2022/07/09 12:42:22;;;;;;;3.95;1.55;;;25.00;90.40;;;;;;5010731;28;20095;-61
2022/07/09 12:44:49;;;;;;;3.15;1.55;;;25.30;90.40;;;;;;5014818;28;20494;-61